首页
METAR-TAF:

METAR-TAF

机场 :

Hutchinson Municipal Airport (Butler Field)

Hutchinson, 明尼蘇達州, 美国

纬度: 44-52N, 经度: 094-23W, 海拔: 323米

当前天气观测

该预报发布于17分钟前的18:16 UTC
风速12节,风向西转西南,有时为16节阵风
温度 -1°C
湿度 64%
气压 1024 hPa
能見度: 16.1公里
天空无云

METAR: KHCD 141816Z AUTO 25012G16KT 10SM CLR M01/M07 A3025 RMK AO2 T10131072

时间: 12:33 (18:33 UTC)


TAF: 丢失

超过4000个机场的气象观测和天气预报(METAR&TAF报告)。

可查询的气象台以黄色和红色小点在地图上表示。

将鼠标移到小点上方,可查看气象台名称。

然后点击查看天气观测和预报。

如需切换地图:点击带黑十字的绿色按钮放大地图;点击带横线的绿色按钮缩小地图;或者点击绿色箭头查看邻近地区的地图。


METAR-TAF: